VRO weather

Kawama Airport
Varadero, Matanzas, Cuba

Public forecast

Using degrees Celsius for public forecast. Weather courtesy of forecast.io.

Closest aviation weather report (METAR) to Kawama Airport

Closest report is Juan Gualberto Gomez International Airport, 9.1 nm (16.9 km) SW. Retrieved 2019/12/14 22:50 UTC (47 minutes ago):

MUVR 142250Z VRB03KT 9000 SCT025 26/21 Q1014

Closest aviation forecast (TAF) to Kawama Airport

Closest forecast is Juan Gualberto Gomez International Airport, 9.1 nm (16.9 km) SW. Retrieved 2019/12/14 18:03 UTC (6 hours ago):

TAF MUVR 141700Z 1418/1518 30008KT 9000 SCT020 BECMG 1501/1503 VRB03KT BECMG 1515/1517 06010KT